Time;durP1;ratioP1;P1;durP2;ratioP2;P2;SDS_P1;SDS_P2;PMS_P1;PMS_P2;Temp;Humidity;BMP_temperature;BMP_pressure;BME280_temperature;BME280_humidity;BME280_pressure;Samples;Min_cycle;Max_cycle;Signal;HPM_P1;HPM_P2
2023/07/01 00:01:22;;;;;;;;;2.00;1.00;;;;;28.66;36.80;100855.56;5057696;28;45399;-80
2023/07/01 00:03:47;;;;;;;;;3.00;2.00;;;;;28.65;37.29;100861.16;5058035;28;45411;-80
2023/07/01 00:06:14;;;;;;;;;1.00;1.00;;;;;28.65;36.86;100851.22;5056682;28;45364;-79
2023/07/01 00:08:40;;;;;;;;;0.00;0.00;;;;;28.67;37.24;100854.53;5057694;28;46906;-80
2023/07/01 00:11:06;;;;;;;;;2.67;1.00;;;;;28.71;37.01;100858.38;5057390;28;45372;-80
2023/07/01 00:13:32;;;;;;;;;1.00;1.00;;;;;28.65;36.98;100842.41;5057707;28;45347;-80
2023/07/01 00:15:58;;;;;;;;;1.33;1.33;;;;;28.65;36.91;100842.41;5057818;28;45546;-80
2023/07/01 00:18:23;;;;;;;;;5.00;2.00;;;;;28.67;37.50;100840.31;5056068;28;47390;-80
2023/07/01 00:20:49;;;;;;;;;1.00;1.00;;;;;28.65;37.07;100837.06;5057607;28;45499;-80
2023/07/01 00:23:15;;;;;;;;;1.00;1.00;;;;;28.68;37.65;100834.72;5039467;28;45537;-80
2023/07/01 00:25:40;;;;;;;;;1.67;1.67;;;;;28.69;36.99;100836.38;5055520;28;45381;-80
2023/07/01 00:28:06;;;;;;;;;1.67;1.67;;;;;28.66;37.32;100826.09;5039376;28;45351;-80
2023/07/01 00:30:31;;;;;;;;;3.33;1.00;;;;;28.65;37.25;100823.66;5039547;28;45357;-80
2023/07/01 00:32:56;;;;;;;;;0.33;0.33;;;;;28.63;37.13;100811.31;5039340;28;45432;-80
2023/07/01 00:35:22;;;;;;;;;1.00;1.00;;;;;28.67;37.29;100821.59;5039289;28;45478;-79
2023/07/01 00:37:47;;;;;;;;;1.33;1.33;;;;;28.67;37.42;100825.09;5039303;28;47233;-80
2023/07/01 00:40:13;;;;;;;;;1.33;1.33;;;;;28.68;37.45;100824.03;5055522;28;45383;-80
2023/07/01 00:42:38;;;;;;;;;1.00;1.00;;;;;28.69;37.65;100823.00;5038826;28;45380;-80
2023/07/01 00:45:04;;;;;;;;;0.00;0.00;;;;;28.62;37.25;100812.34;5039414;28;45459;-80
2023/07/01 00:47:29;;;;;;;;;0.00;0.00;;;;;28.67;37.05;100810.88;5074129;27;48188;-80
2023/07/01 00:49:56;;;;;;;;;1.00;1.00;;;;;28.65;37.38;100807.63;5077421;28;45284;-80
2023/07/01 00:52:22;;;;;;;;;1.00;1.00;;;;;28.63;37.22;100797.94;5055852;28;45384;-80
2023/07/01 00:54:48;;;;;;;;;2.00;0.67;;;;;28.67;37.58;100808.19;5055528;28;45555;-80
2023/07/01 00:57:13;;;;;;;;;2.33;1.00;;;;;28.67;37.32;100803.66;5055595;28;48207;-80
2023/07/01 00:59:39;;;;;;;;;0.33;0.33;;;;;28.62;37.66;100790.16;5055186;28;45266;-80
2023/07/01 01:02:15;;;;;;;;;1.00;1.00;;;;;28.66;37.63;100796.66;5057070;28;45438;-80
2023/07/01 01:04:48;;;;;;;;;1.67;1.67;;;;;28.67;37.40;100794.81;5056788;28;45418;-80
2023/07/01 01:07:16;;;;;;;;;1.00;1.00;;;;;28.67;37.05;100792.97;5056426;28;47221;-80
2023/07/01 01:09:48;;;;;;;;;1.00;1.00;;;;;28.67;37.63;100792.13;5054939;28;46093;-80
2023/07/01 01:12:14;;;;;;;;;1.00;1.00;;;;;28.67;37.47;100789.47;5055447;28;45445;-80
2023/07/01 01:14:42;;;;;;;;;1.00;1.00;;;;;28.66;37.56;100780.59;5055559;28;45381;-80
2023/07/01 01:17:13;;;;;;;;;0.33;0.33;;;;;28.66;37.40;100780.59;5056704;28;46475;-80
2023/07/01 01:19:41;;;;;;;;;1.00;1.00;;;;;28.67;37.58;100771.53;5056388;28;45348;-80
2023/07/01 01:22:16;;;;;;;;;1.00;1.00;;;;;28.67;37.27;100779.56;5038330;28;45443;-80
2023/07/01 01:24:46;;;;;;;;;0.33;0.33;;;;;28.65;37.30;100776.28;5072429;28;45506;-80
2023/07/01 01:27:15;;;;;;;;;1.00;1.00;;;;;28.66;37.47;100774.44;5056498;28;45991;-79
2023/07/01 01:29:41;;;;;;;;;1.00;1.00;;;;;28.66;37.67;100769.91;5047893;28;45375;-80
2023/07/01 01:32:07;;;;;;;;;1.00;1.00;;;;;28.65;37.70;100770.13;5056137;28;45346;-80
2023/07/01 01:34:33;;;;;;;;;1.00;1.00;;;;;28.68;37.53;100770.47;5055253;28;45346;-80
2023/07/01 01:37:03;;;;;;;;;1.67;1.67;;;;;28.68;37.47;100764.31;5056066;28;46645;-80
2023/07/01 01:39:33;;;;;;;;;2.00;1.33;;;;;28.65;37.62;100756.75;5054945;28;45283;-80
2023/07/01 01:42:30;;;;;;;;;2.00;2.00;;;;;28.69;37.84;100765.94;5054994;28;45357;-80
2023/07/01 01:44:57;;;;;;;;;0.00;0.00;;;;;28.68;37.53;100753.59;5056343;28;45295;-80
2023/07/01 01:47:28;;;;;;;;;0.33;0.33;;;;;28.61;37.45;100745.69;5064368;28;46963;-80
2023/07/01 01:50:00;;;;;;;;;1.00;1.00;;;;;28.63;37.80;100744.41;5076665;28;45367;-79
2023/07/01 01:52:26;;;;;;;;;0.33;0.33;;;;;28.67;37.62;100754.66;5075989;28;45477;-79
2023/07/01 01:54:54;;;;;;;;;1.00;1.00;;;;;28.63;37.59;100749.75;5092044;27;45577;-80
2023/07/01 01:57:20;;;;;;;;;0.33;0.33;;;;;28.62;37.88;100742.75;5092020;27;45467;-80
2023/07/01 01:59:46;;;;;;;;;1.00;1.00;;;;;28.59;38.02;100737.06;5076021;28;45531;-79
2023/07/01 02:02:12;;;;;;;;;0.00;0.00;;;;;28.63;37.88;100736.38;5076394;28;45458;-80
2023/07/01 02:04:37;;;;;;;;;1.00;1.00;;;;;28.66;37.99;100740.47;5076449;28;45365;-80
2023/07/01 02:07:03;;;;;;;;;1.00;0.67;;;;;28.59;38.13;100732.53;5074563;27;46241;-80
2023/07/01 02:09:28;;;;;;;;;1.00;1.00;;;;;28.62;37.41;100736.63;5091059;27;45336;-80
2023/07/01 02:11:55;;;;;;;;;0.33;0.33;;;;;28.62;37.80;100739.28;5058092;28;45390;-80
2023/07/01 02:14:21;;;;;;;;;1.00;1.00;;;;;28.66;38.16;100726.25;5076338;28;45335;-80
2023/07/01 02:16:46;;;;;;;;;1.00;1.00;;;;;28.61;37.46;100721.59;5074726;28;45593;-80
2023/07/01 02:19:12;;;;;;;;;0.00;0.00;;;;;28.63;37.91;100722.16;5075697;28;45367;-80
2023/07/01 02:21:38;;;;;;;;;1.00;1.00;;;;;28.60;38.16;100710.06;5074111;28;45424;-80
2023/07/01 02:24:03;;;;;;;;;0.67;0.67;;;;;28.59;38.09;100708.44;5074644;28;45523;-80
2023/07/01 02:26:29;;;;;;;;;1.00;1.00;;;;;28.61;37.88;100708.22;5074782;28;46412;-80
2023/07/01 02:28:55;;;;;;;;;1.00;1.00;;;;;28.62;37.72;100709.84;5074705;28;45474;-79
2023/07/01 02:31:20;;;;;;;;;1.33;0.00;;;;;28.66;38.16;100711.00;5075938;28;45235;-80
2023/07/01 02:33:46;;;;;;;;;1.00;1.00;;;;;28.63;37.91;100701.59;5057696;28;45633;-80
2023/07/01 02:36:14;;;;;;;;;0.67;0.67;;;;;28.59;37.96;100695.06;5075467;28;46495;-80
2023/07/01 02:38:39;;;;;;;;;1.00;1.00;;;;;28.60;37.49;100691.31;5075944;28;45404;-80
2023/07/01 02:41:04;;;;;;;;;1.00;1.00;;;;;28.63;38.19;100698.09;5075867;28;45332;-80
2023/07/01 02:43:30;;;;;;;;;2.00;1.00;;;;;28.63;37.98;100695.41;5075963;28;45430;-80
2023/07/01 02:45:55;;;;;;;;;1.00;1.00;;;;;28.63;38.22;100695.41;5075347;28;46279;-80
2023/07/01 02:48:20;;;;;;;;;1.00;1.00;;;;;28.67;38.05;100696.59;5074012;28;45458;-80
2023/07/01 02:50:46;;;;;;;;;0.00;0.00;;;;;28.61;37.99;100692.97;5075293;28;45296;-80
2023/07/01 02:53:11;;;;;;;;;0.33;0.33;;;;;28.65;38.25;100692.53;5057630;28;45411;-80
2023/07/01 02:55:36;;;;;;;;;0.00;0.00;;;;;28.67;37.78;100690.44;5056941;28;46853;-80
2023/07/01 02:58:02;;;;;;;;;1.00;1.00;;;;;28.62;38.05;100681.22;5073968;27;45388;-80
2023/07/01 03:00:27;;;;;;;;;1.00;1.00;;;;;28.58;37.79;100672.00;5057684;28;45445;-80
2023/07/01 03:02:53;;;;;;;;;1.67;1.00;;;;;28.62;38.30;100680.41;5075565;28;45525;-80
2023/07/01 03:05:23;;;;;;;;;0.00;0.00;;;;;28.66;38.51;100680.75;5056225;28;47091;-80
2023/07/01 03:07:48;;;;;;;;;0.00;0.00;;;;;28.65;38.23;100681.81;5075514;28;45358;-80
2023/07/01 03:10:14;;;;;;;;;0.00;0.00;;;;;28.59;37.93;100673.66;5075562;28;45330;-80
2023/07/01 03:12:40;;;;;;;;;0.67;0.67;;;;;28.58;37.99;100669.34;5057451;28;45371;-80
2023/07/01 03:15:05;;;;;;;;;1.33;1.33;;;;;28.62;38.47;100667.03;5075269;28;45336;-80
2023/07/01 03:17:31;;;;;;;;;0.33;0.33;;;;;28.61;38.04;100665.38;5075415;28;45320;-79
2023/07/01 03:19:57;;;;;;;;;0.00;0.00;;;;;28.61;38.05;100668.06;5075738;27;45427;-80
2023/07/01 03:22:23;;;;;;;;;0.33;0.33;;;;;28.60;38.02;100655.72;5078979;28;45393;-80
2023/07/01 03:24:48;;;;;;;;;0.00;0.00;;;;;28.65;38.26;100665.75;5077721;28;46484;-80
2023/07/01 03:27:13;;;;;;;;;0.00;0.00;;;;;28.64;38.02;100667.59;5077144;27;45540;-80
2023/07/01 03:29:39;;;;;;;;;0.00;0.00;;;;;28.59;38.33;100646.06;5085889;27;45471;-80
2023/07/01 03:32:05;;;;;;;;;0.67;0.67;;;;;28.60;38.14;100653.84;5078855;28;45385;-80
2023/07/01 03:34:30;;;;;;;;;0.00;0.00;;;;;28.63;38.31;100650.72;5060241;28;47453;-79
2023/07/01 03:36:56;;;;;;;;;1.00;1.00;;;;;28.57;38.51;100632.94;5078390;28;45370;-80
2023/07/01 03:39:22;;;;;;;;;1.00;1.00;;;;;28.60;38.24;100642.34;5078603;28;45317;-80
2023/07/01 03:41:47;;;;;;;;;0.00;0.00;;;;;28.60;38.34;100642.34;5078396;28;45253;-79
2023/07/01 03:44:12;;;;;;;;;0.00;0.00;;;;;28.59;37.84;100643.41;5060290;28;47143;-80
2023/07/01 03:46:38;;;;;;;;;0.00;0.00;;;;;28.60;38.53;100651.19;5078384;28;45386;-81
2023/07/01 03:49:04;;;;;;;;;0.33;0.33;;;;;28.63;38.29;100647.22;5078362;28;45419;-80
2023/07/01 03:51:32;;;;;;;;;1.00;1.00;;;;;28.65;38.20;100639.00;5078276;28;45372;-80
2023/07/01 03:53:58;;;;;;;;;1.00;1.00;;;;;28.63;38.22;100650.72;5078333;28;47127;-80
2023/07/01 03:56:23;;;;;;;;;0.00;0.00;;;;;28.61;38.26;100642.13;5077491;28;45428;-80
2023/07/01 03:58:48;;;;;;;;;0.67;0.67;;;;;28.62;38.66;100645.63;5059524;28;45351;-80
2023/07/01 04:01:16;;;;;;;;;0.67;0.67;;;;;28.62;38.19;100642.94;5077152;28;45694;-80
2023/07/01 04:03:41;;;;;;;;;1.00;0.00;;;;;28.60;38.57;100635.13;5077423;28;45428;-80
2023/07/01 04:06:07;;;;;;;;;0.00;0.00;;;;;28.62;38.74;100643.72;5078202;28;45529;-80
2023/07/01 04:08:33;;;;;;;;;3.00;1.00;;;;;28.56;38.32;100631.28;5094263;27;45349;-79
2023/07/01 04:10:58;;;;;;;;;0.00;0.00;;;;;28.63;38.66;100644.56;5059800;28;45295;-80
2023/07/01 04:13:24;;;;;;;;;0.00;0.00;;;;;28.57;38.30;100640.13;5077949;28;45364;-80
2023/07/01 04:15:49;;;;;;;;;1.00;1.00;;;;;28.59;38.29;100636.19;5077865;28;45371;-80
2023/07/01 04:18:15;;;;;;;;;0.00;0.00;;;;;28.59;38.57;100635.38;5059743;28;45363;-79
2023/07/01 04:20:40;;;;;;;;;0.00;0.00;;;;;28.59;38.26;100638.88;5077973;28;45428;-79
2023/07/01 04:23:06;;;;;;;;;0.00;0.00;;;;;28.57;38.28;100638.28;5059465;28;47178;-80
2023/07/01 04:25:31;;;;;;;;;1.33;1.00;;;;;28.61;38.25;100643.97;5077769;28;45469;-80
2023/07/01 04:27:57;;;;;;;;;0.00;0.00;;;;;28.58;38.49;100631.88;5059762;28;45459;-80
2023/07/01 04:30:23;;;;;;;;;0.00;0.00;;;;;28.59;38.40;100635.38;5059531;28;45415;-80
2023/07/01 04:32:49;;;;;;;;;0.00;0.00;;;;;28.63;38.54;100639.19;5075734;28;45465;-80
2023/07/01 04:35:14;;;;;;;;;0.33;0.00;;;;;28.59;38.80;100638.88;5077553;28;45394;-80
2023/07/01 04:37:40;;;;;;;;;0.00;0.00;;;;;28.60;38.27;100636.97;5059698;28;45390;-80
2023/07/01 04:40:06;;;;;;;;;0.00;0.00;;;;;28.59;37.91;100630.00;5076356;27;45471;-80
2023/07/01 04:42:34;;;;;;;;;0.00;0.00;;;;;28.57;38.71;100627.59;5059529;28;48039;-79
2023/07/01 04:45:00;;;;;;;;;0.33;0.33;;;;;28.60;38.81;100629.78;5077237;28;45229;-80
2023/07/01 04:47:26;;;;;;;;;1.00;1.00;;;;;28.59;38.66;100630.00;5077248;28;45409;-80
2023/07/01 04:49:52;;;;;;;;;2.00;0.00;;;;;28.59;38.44;100630.00;5059552;28;45286;-80
2023/07/01 04:52:21;;;;;;;;;0.00;0.00;;;;;28.58;38.72;100620.34;5077231;28;46299;-80
2023/07/01 04:54:46;;;;;;;;;0.00;0.00;;;;;28.63;38.79;100637.34;5077060;28;46207;-80
2023/07/01 04:57:12;;;;;;;;;0.33;0.33;;;;;28.59;38.31;100633.50;5076287;28;45447;-80
2023/07/01 04:59:37;;;;;;;;;0.00;0.00;;;;;28.63;38.95;100642.69;5058651;28;45570;-80
2023/07/01 05:02:03;;;;;;;;;0.00;0.00;;;;;28.59;38.88;100636.19;5077341;28;45444;-80
2023/07/01 05:04:28;;;;;;;;;1.67;0.67;;;;;28.58;38.42;100639.91;5075586;28;45290;-80
2023/07/01 05:06:53;;;;;;;;;0.00;0.00;;;;;28.61;38.57;100635.94;5058879;28;45436;-80
2023/07/01 05:09:19;;;;;;;;;0.00;0.00;;;;;28.63;38.82;100636.53;5059182;28;45595;-80
2023/07/01 05:11:44;;;;;;;;;0.00;0.00;;;;;28.55;38.49;100626.97;5058595;28;45397;-80
2023/07/01 05:14:09;;;;;;;;;0.00;0.00;;;;;28.66;38.58;100643.28;5058497;28;45914;-80
2023/07/01 05:16:35;;;;;;;;;0.00;0.00;;;;;28.63;38.28;100642.69;5059131;28;45417;-80
2023/07/01 05:19:00;;;;;;;;;0.00;0.00;;;;;28.61;38.98;100635.94;5055429;28;45435;-79
2023/07/01 05:21:27;;;;;;;;;0.00;0.00;;;;;28.63;38.83;100642.69;5056468;28;46012;-80
2023/07/01 05:23:52;;;;;;;;;0.00;0.00;;;;;28.49;38.28;100626.06;5056573;28;45303;-80
2023/07/01 05:26:18;;;;;;;;;0.00;0.00;;;;;28.59;39.01;100644.22;5055894;28;45472;-80
2023/07/01 05:28:43;;;;;;;;;0.00;0.00;;;;;28.61;38.56;100647.47;5056448;28;45356;-79
2023/07/01 05:31:09;;;;;;;;;0.00;0.00;;;;;28.65;38.83;100647.03;5056183;28;47820;-80
2023/07/01 05:33:34;;;;;;;;;0.00;0.00;;;;;28.65;38.93;100649.69;5056486;28;45399;-79
2023/07/01 05:36:00;;;;;;;;;0.00;0.00;;;;;28.64;38.84;100646.19;5056048;28;45411;-79
2023/07/01 05:38:25;;;;;;;;;0.00;0.00;;;;;28.60;38.83;100645.00;5056128;28;45296;-80
2023/07/01 05:40:50;;;;;;;;;0.00;0.00;;;;;28.62;38.45;100643.72;5054998;28;46228;-80
2023/07/01 05:43:16;;;;;;;;;0.00;0.00;;;;;28.62;38.63;100642.94;5052978;28;45386;-80
2023/07/01 05:45:41;;;;;;;;;0.00;0.00;;;;;28.60;38.35;100647.69;5056612;28;45300;-80
2023/07/01 05:48:06;;;;;;;;;1.00;0.00;;;;;28.58;38.35;100639.91;5038236;28;45688;-80
2023/07/01 05:50:32;;;;;;;;;0.00;0.00;;;;;28.58;39.03;100639.91;5055994;28;47194;-80
2023/07/01 05:52:57;;;;;;;;;0.00;0.00;;;;;28.61;38.89;100647.47;5054059;28;45726;-78
2023/07/01 05:55:22;;;;;;;;;0.33;0.33;;;;;28.60;39.88;100645.00;5037763;28;45429;-78
2023/07/01 05:57:48;;;;;;;;;0.00;0.00;;;;;28.47;40.05;100649.53;5055405;28;45316;-80
2023/07/01 06:00:14;;;;;;;;;1.00;0.00;;;;;28.34;40.67;100650.50;5055252;28;45809;-81
2023/07/01 06:02:40;;;;;;;;;0.00;0.00;;;;;28.18;41.03;100655.47;5055330;28;45497;-80
2023/07/01 06:05:06;;;;;;;;;0.33;0.33;;;;;27.96;41.21;100639.94;5056247;28;45409;-80
2023/07/01 06:07:32;;;;;;;;;2.00;2.00;;;;;27.90;41.24;100651.50;5055624;28;45622;-80
2023/07/01 06:09:57;;;;;;;;;1.67;0.00;;;;;27.79;42.11;100653.06;5055469;28;46265;-80
2023/07/01 06:12:25;;;;;;;;;0.00;0.00;;;;;27.66;41.98;100659.41;5054166;28;45373;-80
2023/07/01 06:14:50;;;;;;;;;0.00;0.00;;;;;27.61;42.19;100656.59;5055763;28;45423;-80
2023/07/01 06:17:16;;;;;;;;;0.00;0.00;;;;;27.44;42.25;100656.34;5054403;28;45268;-80
2023/07/01 06:19:41;;;;;;;;;0.00;0.00;;;;;27.29;42.89;100671.69;5068347;28;45348;-80
2023/07/01 06:22:06;;;;;;;;;0.00;0.00;;;;;27.16;43.30;100674.50;5074370;28;45440;-80
2023/07/01 06:24:32;;;;;;;;;0.00;0.00;;;;;27.00;42.86;100670.47;5075537;28;45563;-78
2023/07/01 06:26:57;;;;;;;;;0.00;0.00;;;;;27.02;43.47;100669.22;5075889;28;45392;-80
2023/07/01 06:29:22;;;;;;;;;0.00;0.00;;;;;27.09;42.74;100669.16;5074592;28;45422;-79
2023/07/01 06:31:48;;;;;;;;;0.00;0.00;;;;;27.19;43.36;100676.72;5074799;27;45408;-80
2023/07/01 06:34:17;;;;;;;;;0.67;0.00;;;;;27.26;43.41;100674.81;5074602;28;45442;-79
2023/07/01 06:36:43;;;;;;;;;1.00;1.00;;;;;27.39;42.61;100676.53;5057716;28;45309;-80
2023/07/01 06:39:08;;;;;;;;;0.00;0.00;;;;;27.46;42.63;100679.13;5075760;28;46524;-80
2023/07/01 06:41:33;;;;;;;;;1.00;0.00;;;;;27.51;42.89;100675.78;5075498;28;45423;-79
2023/07/01 06:43:59;;;;;;;;;0.00;0.00;;;;;27.56;42.33;100678.59;5075764;28;45329;-80
2023/07/01 06:46:26;;;;;;;;;0.00;0.00;;;;;27.67;42.25;100692.25;5075727;28;45331;-80
2023/07/01 06:48:51;;;;;;;;;0.00;0.00;;;;;27.72;42.15;100689.75;5074560;28;46226;-79
2023/07/01 06:51:16;;;;;;;;;0.00;0.00;;;;;27.77;41.74;100687.22;5057024;28;45261;-79
2023/07/01 06:53:42;;;;;;;;;0.00;0.00;;;;;27.80;42.35;100681.47;5074313;27;45274;-79
2023/07/01 06:56:07;;;;;;;;;0.00;0.00;;;;;27.83;41.77;100688.22;5093798;27;45330;-79
2023/07/01 06:58:33;;;;;;;;;2.00;0.00;;;;;27.85;41.98;100678.09;5060545;28;46613;-80
2023/07/01 07:00:58;;;;;;;;;0.00;0.00;;;;;27.91;41.73;100681.75;5060324;28;45273;-80
2023/07/01 07:03:24;;;;;;;;;0.00;0.00;;;;;28.01;41.82;100694.56;5061217;28;45369;-80
2023/07/01 07:05:52;;;;;;;;;0.33;0.33;;;;;28.04;41.24;100688.78;5077982;27;45554;-80
2023/07/01 07:08:17;;;;;;;;;0.00;0.00;;;;;28.06;41.69;100681.34;5079088;28;46639;-80
2023/07/01 07:10:42;;;;;;;;;1.00;0.00;;;;;28.10;41.31;100685.22;5077944;28;45320;-80
2023/07/01 07:13:09;;;;;;;;;1.00;0.00;;;;;28.18;41.20;100681.41;5077957;27;45343;-79
2023/07/01 07:15:34;;;;;;;;;0.00;0.00;;;;;28.21;41.07;100688.97;5077925;28;45404;-79
2023/07/01 07:18:01;;;;;;;;;0.00;0.00;;;;;28.19;41.02;100672.34;5060601;28;45362;-80
2023/07/01 07:20:26;;;;;;;;;0.00;0.00;;;;;28.24;41.08;100679.66;5078855;28;45331;-80
2023/07/01 07:22:52;;;;;;;;;0.00;0.00;;;;;28.25;40.73;100679.47;5077417;27;45467;-79
2023/07/01 07:25:17;;;;;;;;;0.00;0.00;;;;;28.34;41.07;100696.00;5060473;28;45604;-79
2023/07/01 07:27:44;;;;;;;;;0.00;0.00;;;;;28.31;41.31;100682.28;5077560;27;45388;-80
2023/07/01 07:30:11;;;;;;;;;0.00;0.00;;;;;28.36;40.45;100685.06;5078771;28;45407;-79
2023/07/01 07:32:37;;;;;;;;;0.00;0.00;;;;;28.40;40.22;100691.59;5079039;28;45402;-79
2023/07/01 07:35:02;;;;;;;;;0.00;0.00;;;;;28.36;40.49;100685.91;5077359;27;45479;-80
2023/07/01 07:37:28;;;;;;;;;0.00;0.00;;;;;28.43;40.34;100690.31;5079002;28;46864;-80
2023/07/01 07:39:53;;;;;;;;;0.00;0.00;;;;;28.46;40.73;100703.28;5077860;28;45297;-79
2023/07/01 07:42:19;;;;;;;;;0.00;0.00;;;;;28.42;40.38;100692.19;5077871;28;45381;-79
2023/07/01 07:44:44;;;;;;;;;0.00;0.00;;;;;28.49;40.52;100705.50;5077159;27;45684;-80
2023/07/01 07:47:10;;;;;;;;;0.00;0.00;;;;;28.43;40.21;100685.78;5078272;28;46423;-79
2023/07/01 07:49:35;;;;;;;;;0.00;0.00;;;;;28.46;40.53;100690.72;5078572;28;45328;-80
2023/07/01 07:52:01;;;;;;;;;0.00;0.00;;;;;28.50;40.58;100696.41;5077095;28;45465;-79
2023/07/01 07:54:28;;;;;;;;;0.00;0.00;;;;;28.47;39.82;100697.69;5076802;28;45568;-79
2023/07/01 07:56:58;;;;;;;;;0.00;0.00;;;;;28.47;40.05;100703.03;5060143;28;47528;-80
2023/07/01 07:59:25;;;;;;;;;0.00;0.00;;;;;28.52;40.19;100708.53;5078188;28;45295;-80
2023/07/01 08:01:51;;;;;;;;;0.00;0.00;;;;;28.43;39.73;100684.97;5077380;28;45361;-80
2023/07/01 08:04:16;;;;;;;;;0.00;0.00;;;;;28.54;39.99;100694.94;5077140;28;45394;-79
2023/07/01 08:06:41;;;;;;;;;0.00;0.00;;;;;28.55;40.34;100693.09;5076240;28;47065;-80
2023/07/01 08:09:07;;;;;;;;;0.00;0.00;;;;;28.56;40.15;100694.69;5059986;28;45577;-79
2023/07/01 08:11:32;;;;;;;;;0.00;0.00;;;;;28.59;40.24;100705.78;5060057;28;45373;-79
2023/07/01 08:13:57;;;;;;;;;1.00;0.67;;;;;28.56;40.12;100687.50;5078005;28;45376;-79
2023/07/01 08:16:23;;;;;;;;;0.67;0.00;;;;;28.61;39.68;100692.16;5077948;28;46050;-79
2023/07/01 08:18:48;;;;;;;;;1.00;1.00;;;;;28.62;39.69;100697.25;5059305;28;45380;-80
2023/07/01 08:21:13;;;;;;;;;0.00;0.00;;;;;28.61;40.04;100684.13;5077372;28;45775;-79
2023/07/01 08:23:39;;;;;;;;;0.00;0.00;;;;;28.69;39.95;100704.38;5059319;28;45305;-80
2023/07/01 08:26:04;;;;;;;;;0.00;0.00;;;;;28.65;39.72;100685.28;5059214;28;48024;-79
2023/07/01 08:28:31;;;;;;;;;0.67;0.67;;;;;28.69;39.64;100691.00;5059156;28;45391;-79
2023/07/01 08:30:58;;;;;;;;;0.00;0.00;;;;;28.68;39.93;100692.84;5077968;28;45574;-80
2023/07/01 08:33:24;;;;;;;;;1.00;0.00;;;;;28.64;39.86;100686.34;5076549;28;45320;-79
2023/07/01 08:35:49;;;;;;;;;0.00;0.00;;;;;28.67;39.70;100698.44;5076253;28;45568;-79
2023/07/01 08:38:15;;;;;;;;;0.00;0.00;;;;;28.71;39.54;100707.66;5076799;28;45384;-79
2023/07/01 08:40:40;;;;;;;;;0.00;0.00;;;;;28.69;39.76;100699.03;5076361;28;45351;-80
2023/07/01 08:43:09;;;;;;;;;0.00;0.00;;;;;28.71;39.91;100704.97;5076436;28;45626;-79
2023/07/01 08:45:37;;;;;;;;;0.00;0.00;;;;;28.71;39.66;100707.66;5074085;28;45641;-79
2023/07/01 08:48:05;;;;;;;;;0.00;0.00;;;;;28.71;39.75;100696.94;5057071;28;45333;-80
2023/07/01 08:50:42;;;;;;;;;0.00;0.00;;;;;28.72;39.64;100715.47;5042998;28;45415;-80
2023/07/01 08:53:10;;;;;;;;;0.00;0.00;;;;;28.67;39.58;100706.47;5077165;28;45500;-79
2023/07/01 08:55:35;;;;;;;;;0.00;0.00;;;;;28.63;39.91;100696.22;5076181;28;46131;-80
2023/07/01 08:58:02;;;;;;;;;0.00;0.00;;;;;28.67;39.79;100709.16;5075939;28;45420;-80
2023/07/01 09:00:29;;;;;;;;;0.00;0.00;;;;;28.72;39.81;100709.28;5077346;28;45310;-80
2023/07/01 09:02:55;;;;;;;;;0.00;0.00;;;;;28.68;39.44;100705.41;5077239;28;45637;-79
2023/07/01 09:05:21;;;;;;;;;0.00;0.00;;;;;28.68;39.35;100706.25;5076944;28;46348;-80
2023/07/01 09:07:46;;;;;;;;;0.67;0.67;;;;;28.71;39.23;100718.34;5075335;28;45652;-80
2023/07/01 09:10:12;;;;;;;;;0.00;0.00;;;;;28.71;39.50;100705.78;5077239;28;45367;-80
2023/07/01 09:12:37;;;;;;;;;0.00;0.00;;;;;28.76;39.76;100718.47;5077130;28;45379;-80
2023/07/01 09:15:12;;;;;;;;;0.00;0.00;;;;;28.81;39.52;100715.09;5075355;28;47524;-80
2023/07/01 09:17:39;;;;;;;;;0.00;0.00;;;;;28.78;39.70;100704.88;5076904;28;45383;-80
2023/07/01 09:20:14;;;;;;;;;0.00;0.00;;;;;28.85;39.70;100713.63;5055083;28;45396;-80
2023/07/01 09:22:43;;;;;;;;;1.67;0.33;;;;;28.92;39.03;100718.84;5055333;28;45462;-80
2023/07/01 09:25:09;;;;;;;;;0.00;0.00;;;;;28.97;39.40;100716.31;5056592;28;46497;-80
2023/07/01 09:27:49;;;;;;;;;3.00;0.00;;;;;28.98;39.50;100709.09;5056542;28;45412;-80
2023/07/01 09:30:20;;;;;;;;;1.00;1.00;;;;;28.98;39.20;100717.13;5056660;28;45839;-80
2023/07/01 09:32:45;;;;;;;;;0.00;0.00;;;;;28.90;39.38;100721.78;5072016;28;45234;-79
2023/07/01 09:35:12;;;;;;;;;0.00;0.00;;;;;28.91;39.43;100727.94;5055292;28;45462;-79
2023/07/01 09:37:38;;;;;;;;;0.00;0.00;;;;;28.93;39.14;100744.59;5056179;28;45335;-80
2023/07/01 09:40:25;;;;;;;;;0.33;0.00;;;;;28.92;39.23;100751.81;5055391;28;45332;-80
2023/07/01 09:42:52;;;;;;;;;0.00;0.00;;;;;28.91;39.32;100739.47;5056362;28;45483;-80
2023/07/01 09:45:18;;;;;;;;;0.00;0.00;;;;;28.90;39.45;100748.56;5056020;28;47191;-80
2023/07/01 09:47:43;;;;;;;;;0.00;0.00;;;;;28.88;39.28;100752.50;5056275;28;45763;-80
2023/07/01 09:50:20;;;;;;;;;0.00;0.00;;;;;28.84;39.20;100746.78;5055274;28;45317;-80
2023/07/01 09:52:46;;;;;;;;;0.67;0.67;;;;;28.87;39.54;100759.72;5055092;28;45286;-80
2023/07/01 09:55:12;;;;;;;;;0.33;0.33;;;;;28.82;39.03;100747.03;5055880;28;46324;-80
2023/07/01 09:57:38;;;;;;;;;0.00;0.00;;;;;28.90;39.34;100753.09;5037985;28;45689;-80
2023/07/01 10:00:06;;;;;;;;;0.00;0.00;;;;;28.89;39.33;100749.59;5056113;28;45297;-80
2023/07/01 10:02:32;;;;;;;;;1.00;0.00;;;;;28.85;39.21;100735.03;5055963;28;45323;-80
2023/07/01 10:05:00;;;;;;;;;0.00;0.00;;;;;28.84;39.09;100746.78;5037147;28;45553;-80
2023/07/01 10:07:26;;;;;;;;;0.00;0.00;;;;;28.84;39.18;100739.56;5054432;28;45462;-80
2023/07/01 10:09:51;;;;;;;;;1.00;0.00;;;;;28.90;39.36;100747.72;5055439;28;45380;-80
2023/07/01 10:12:19;;;;;;;;;0.00;0.00;;;;;28.84;39.15;100730.72;5055994;28;45396;-79
2023/07/01 10:14:51;;;;;;;;;0.67;0.33;;;;;28.93;38.87;100747.28;5070785;28;47622;-80
2023/07/01 10:17:17;;;;;;;;;0.00;0.00;;;;;28.94;39.24;100738.19;5055726;28;45402;-79
2023/07/01 10:19:46;;;;;;;;;1.00;1.00;;;;;28.92;39.01;100734.94;5085298;27;45281;-79
2023/07/01 10:22:29;;;;;;;;;0.33;0.33;;;;;28.94;39.44;100741.69;5076171;28;45319;-80
2023/07/01 10:25:05;;;;;;;;;0.00;0.00;;;;;28.91;38.95;100739.47;5075927;28;45576;-79
2023/07/01 10:27:40;;;;;;;;;0.67;0.00;;;;;28.93;39.38;100740.06;5074675;28;45383;-80
2023/07/01 10:30:06;;;;;;;;;0.00;0.00;;;;;28.87;39.03;100738.28;5074853;28;45372;-79
2023/07/01 10:32:32;;;;;;;;;0.00;0.00;;;;;28.92;38.84;100743.78;5074691;27;45364;-79
2023/07/01 10:34:58;;;;;;;;;0.33;0.33;;;;;28.92;38.74;100746.47;5075412;28;47344;-79
2023/07/01 10:37:26;;;;;;;;;0.00;0.00;;;;;28.91;39.11;100746.69;5075850;27;45404;-79
2023/07/01 10:39:56;;;;;;;;;0.33;0.33;;;;;28.85;39.22;100735.84;5074626;27;45364;-80
2023/07/01 10:42:34;;;;;;;;;0.00;0.00;;;;;28.84;39.23;100749.47;5074048;28;45612;-80
2023/07/01 10:45:12;;;;;;;;;0.67;0.67;;;;;28.90;38.71;100759.25;5074314;27;46825;-80
2023/07/01 10:47:49;;;;;;;;;1.00;1.00;;;;;28.88;38.76;100765.91;5057067;27;45536;-79
2023/07/01 10:50:17;;;;;;;;;0.00;0.00;;;;;28.80;39.02;100748.28;5057127;27;45524;-78
2023/07/01 10:52:58;;;;;;;;;0.00;0.00;;;;;28.89;39.41;100770.19;5059868;28;45581;-79
2023/07/01 10:55:40;;;;;;;;;1.00;1.00;;;;;28.89;39.18;100772.88;5058733;27;46145;-79
2023/07/01 10:58:22;;;;;;;;;0.00;0.00;;;;;28.84;39.12;100771.69;5064531;28;45309;-74
2023/07/01 11:00:52;;;;;;;;;0.00;0.00;;;;;28.84;39.07;100763.66;5064779;27;45450;-75
2023/07/01 11:03:32;;;;;;;;;0.00;0.00;;;;;28.91;39.02;100774.28;5072707;28;45486;-75
2023/07/01 11:05:59;;;;;;;;;0.00;0.00;;;;;28.87;39.24;100762.41;5066748;27;47039;-75
2023/07/01 11:08:28;;;;;;;;;0.00;0.00;;;;;28.90;39.42;100772.66;5053352;28;45561;-76
2023/07/01 11:10:54;;;;;;;;;0.00;0.00;;;;;28.88;38.84;100769.41;5065103;28;45510;-75
2023/07/01 11:13:20;;;;;;;;;0.00;0.00;;;;;28.95;39.48;100774.63;5055924;28;45642;-75
2023/07/01 11:16:09;;;;;;;;;0.33;0.33;;;;;28.93;39.08;100772.19;5056496;28;48369;-74
2023/07/01 11:18:45;;;;;;;;;0.00;0.00;;;;;28.91;39.00;100760.88;5055833;28;45496;-75
2023/07/01 11:21:14;;;;;;;;;1.00;1.00;;;;;28.90;39.24;100759.25;5074296;28;45320;-81
2023/07/01 11:23:49;;;;;;;;;0.00;0.00;;;;;28.99;39.09;100766.97;5074766;28;45677;-75